Hanalei, HI (96714)

6:07 PM HST on September 17, 2014 (GMT -1000)
North Shore of Kauai | Change Station
CLOSE
Current Station
Personal Weather Station
Location: Princeville, HI
Elevation: 200 ft
Nearby Weather Stations

Elev 200 ft 22.23 °N, 159.48 °W | Updated 1 second ago

Mostly Cloudy
Mostly Cloudy
79.0 °F
Feels Like 82 °F
N
3.6
Wind Variable Wind from ENE
Gusts 3.6 mph

Today
High -- | Low -- °F
--% Chance of Precip.
Yesterday
High -- | Low -- °F
Precip. -- in
6:25 AM 6:38 PM
Waning Crescent, 30% visible
Pressure 29.93 in
Visibility 10.0 miles
Clouds Few 2300 ft
Mostly Cloudy 7500 ft
Heat Index 82 °F
Dew Point 73 °F
Humidity 83%
Rainfall 0.46 in
Snow Depth Not available.
UV 0 out of 12
Pollen Not available.
Air Quality Not available.
Flu Activity Not available.
METAR PHLI 180353Z 05010KT 10SM FEW023 BKN075 28/22 A2994 RMK AO2 SLP135 T02780217

More Conditions Fewer Conditions

Pressure 29.93 in
Visibility 10.0 miles
Clouds Few 2300 ft
Mostly Cloudy 7500 ft
Heat Index 82 °F
Dew Point 73 °F
Humidity 83%
Rainfall 0.46 in
Snow Depth Not available.
UV 0 out of 12
Pollen Not available.
Air Quality Not available.
Flu Activity Not available.
METAR PHLI 180353Z 05010KT 10SM FEW023 BKN075 28/22 A2994 RMK AO2 SLP135 T02780217

More Conditions Fewer Conditions

10-Day Weather Forecast

Almanac

Astronomy

Sep. 17, 2014 Rise Set
Actual Time 6:25 AM HST 6:38 PM HST
Civil Twilight 6:02 AM HST 7:01 PM HST
Nautical Twilight 5:36 AM HST 7:27 PM HST
Astronomical Twilight 5:10 AM HST 7:53 PM HST
Moon 1:04 AM HST (9/17) 2:29 PM HST (9/17)
Length of Visible Light 12h 58m
Length of Day
12h 13m
Tomorrow will be 1m 16s shorter.
Waning Crescent, 30% of the Moon is Illuminated
Sep 18
Waning Crescent
Sep 24
New
Oct 1
First Quarter
Oct 8
Full
Oct 15
Last Quarter

Today's Extremes

State Highs State Lows

Community

WunderPhotos

Upload Photos

1,754,291 photos uploaded!

Nearby

Snow Depth

Station Depth Elevation
No new snow has been reported.

Earthquake Activity

City Distance Mag. Time & Date
No recent earthquake activity has been reported nearby.
Minimum magnitude displayed is 2.5.

Coastal Water Temperatures

Place Temperature
No Stations Reporting

Nearby Weather Stations